GMA01 EGPL-EGPF

Flight info

Callsign GMA01
Flight time N/A
Altitude 15000
Route BEN DCT TOBMO Y958 BRUCE
Aircraft BE20/L-SBGRY/S

Departure

Time 2026-05-04 15:15
Airport Benbecula Airport (EGPL)

Arrival

Time N/A
Airport Glasgow Airport (EGPF)
Time Latitude Longitude Altitude Speed Heading
2026-05-04 15:07 57.47523 -7.37174 22 ft 0 kts 20°
2026-05-04 15:12 57.47533 -7.37167 22 ft 0 kts 29°
2026-05-04 15:13 57.47528 -7.37152 25 ft 4 kts 184°
2026-05-04 15:13 57.47504 -7.37305 22 ft 20 kts 289°
2026-05-04 15:13 57.47605 -7.37464 25 ft 14 kts 323°
2026-05-04 15:13 57.47666 -7.37461 25 ft 3 kts 57°
2026-05-04 15:14 57.47716 -7.37330 21 ft 32 kts 56°
2026-05-04 15:14 57.47945 -7.36708 19 ft 85 kts 56°
2026-05-04 15:14 57.48387 -7.35532 53 ft 135 kts 52°
2026-05-04 15:14 57.48948 -7.34031 558 ft 147 kts 52°
2026-05-04 15:15 57.49548 -7.32444 1286 ft 151 kts 49°
2026-05-04 15:15 57.49977 -7.30619 1841 ft 174 kts 84°
2026-05-04 15:15 57.49588 -7.28532 2483 ft 171 kts 136°
2026-05-04 15:16 57.47547 -7.26774 3934 ft 164 kts 155°
2026-05-04 15:16 57.46570 -7.25699 4692 ft 162 kts 153°
2026-05-04 15:16 57.44636 -7.23490 6126 ft 165 kts 152°
2026-05-04 15:17 57.43650 -7.22365 6761 ft 169 kts 153°
2026-05-04 15:17 57.41597 -7.20027 7987 ft 176 kts 153°
2026-05-04 15:17 57.40544 -7.18829 8625 ft 179 kts 153°
2026-05-04 15:18 57.39465 -7.17601 9243 ft 184 kts 153°
2026-05-04 15:18 57.38362 -7.16348 9918 ft 187 kts 154°
2026-05-04 15:18 57.37242 -7.15075 10525 ft 190 kts 154°
2026-05-04 15:19 57.34972 -7.12499 11982 ft 193 kts 154°
2026-05-04 15:19 57.33828 -7.11201 12728 ft 193 kts 155°
2026-05-04 15:19 57.31518 -7.08586 14196 ft 196 kts 155°
2026-05-04 15:20 57.30357 -7.07272 14909 ft 196 kts 155°
2026-05-04 15:20 57.29084 -7.05857 15042 ft 232 kts 155°
2026-05-04 15:20 57.27610 -7.04209 15054 ft 261 kts 154°
2026-05-04 15:20 57.26002 -7.02382 15050 ft 280 kts 153°
2026-05-04 15:21 57.24309 -7.00461 15044 ft 290 kts 153°
2026-05-04 15:21 57.22569 -6.98501 15039 ft 296 kts 153°
2026-05-04 15:21 57.19022 -6.94517 15034 ft 300 kts 153°
2026-05-04 15:22 57.17237 -6.92514 15023 ft 300 kts 153°
2026-05-04 15:22 57.15453 -6.90514 15026 ft 300 kts 153°
2026-05-04 15:22 57.11858 -6.86495 15028 ft 300 kts 153°
2026-05-04 15:23 57.10097 -6.84528 15029 ft 300 kts 153°
2026-05-04 15:23 57.08310 -6.82536 15032 ft 300 kts 153°
2026-05-04 15:23 57.06524 -6.80540 15032 ft 300 kts 153°
2026-05-04 15:23 57.04710 -6.78526 15032 ft 300 kts 153°
2026-05-04 15:24 57.01159 -6.74585 15036 ft 300 kts 153°
2026-05-04 15:24 56.97579 -6.70616 15038 ft 301 kts 153°
2026-05-04 15:25 56.95767 -6.68611 15038 ft 300 kts 153°
2026-05-04 15:25 56.93979 -6.66636 15038 ft 301 kts 153°
2026-05-04 15:25 56.92210 -6.64683 15028 ft 300 kts 153°
2026-05-04 15:26 56.88619 -6.60725 15030 ft 299 kts 153°
2026-05-04 15:26 56.86855 -6.58785 15032 ft 299 kts 153°
2026-05-04 15:26 56.83260 -6.54837 15035 ft 299 kts 153°
2026-05-04 15:27 56.81477 -6.52882 15033 ft 299 kts 153°
2026-05-04 15:27 56.77905 -6.48972 15036 ft 299 kts 153°
2026-05-04 15:28 56.74398 -6.44911 15034 ft 299 kts 150°
2026-05-04 15:28 56.72667 -6.42809 15032 ft 299 kts 150°
2026-05-04 15:28 56.69192 -6.38607 15035 ft 300 kts 150°
2026-05-04 15:29 56.67461 -6.36502 15030 ft 299 kts 150°
2026-05-04 15:30 56.60542 -6.28131 15040 ft 298 kts 150°
2026-05-04 15:30 56.55355 -6.21880 15041 ft 298 kts 150°
2026-05-04 15:31 56.51895 -6.17722 15041 ft 299 kts 150°
2026-05-04 15:31 56.50162 -6.15643 15041 ft 299 kts 150°
2026-05-04 15:32 56.44958 -6.09414 15043 ft 299 kts 150°